Time;durP1;ratioP1;P1;durP2;ratioP2;P2;SDS_P1;SDS_P2;PMS_P1;PMS_P2;Temp;Humidity;BMP_temperature;BMP_pressure;BME280_temperature;BME280_humidity;BME280_pressure;Samples;Min_cycle;Max_cycle;Signal;HPM_P1;HPM_P2
2021/03/14 00:00:40;;;;;;;131.57;67.18;;;7.80;91.60;;;;;;5012138;28;20447;-69
2021/03/14 00:03:08;;;;;;;112.60;59.25;;;7.70;91.50;;;;;;5013528;28;20113;-68
2021/03/14 00:05:36;;;;;;;134.50;69.03;;;7.60;92.30;;;;;;5028533;28;20038;-68
2021/03/14 00:08:02;;;;;;;153.20;80.88;;;7.70;92.90;;;;;;5028692;28;20389;-69
2021/03/14 00:10:28;;;;;;;227.15;115.03;;;7.70;92.40;;;;;;5028491;28;20099;-70
2021/03/14 00:12:54;;;;;;;214.23;109.50;;;7.70;92.10;;;;;;5013319;28;20374;-70
2021/03/14 00:15:22;;;;;;;206.50;110.50;;;7.70;92.00;;;;;;5013143;28;20041;-70
2021/03/14 00:17:49;;;;;;;208.43;105.75;;;7.80;91.70;;;;;;5012112;28;20432;-67
2021/03/14 00:20:17;;;;;;;181.65;95.65;;;7.80;91.80;;;;;;5028468;28;20025;-70
2021/03/14 00:22:43;;;;;;;176.32;90.97;;;7.80;92.10;;;;;;5013430;28;20610;-68
2021/03/14 00:25:10;;;;;;;181.68;95.75;;;7.80;91.30;;;;;;5013164;28;20109;-70
2021/03/14 00:27:36;;;;;;;158.30;86.40;;;7.80;92.50;;;;;;5013069;28;20030;-71
2021/03/14 00:30:04;;;;;;;163.68;82.35;;;7.80;92.80;;;;;;5013363;28;20045;-69
2021/03/14 00:32:30;;;;;;;157.50;80.07;;;7.80;92.70;;;;;;5012496;28;20146;-68
2021/03/14 00:34:56;;;;;;;155.55;79.32;;;7.90;91.90;;;;;;5013083;28;20169;-68
2021/03/14 00:37:22;;;;;;;171.77;84.13;;;7.90;91.90;;;;;;5012740;28;20117;-70
2021/03/14 00:39:48;;;;;;;170.60;83.88;;;7.90;91.10;;;;;;5013050;28;20040;-70
2021/03/14 00:42:14;;;;;;;158.93;81.20;;;7.90;90.70;;;;;;5011719;28;20127;-69
2021/03/14 00:44:40;;;;;;;146.43;75.50;;;7.80;89.70;;;;;;5013271;28;20124;-69
2021/03/14 00:47:06;;;;;;;156.10;81.82;;;7.80;89.60;;;;;;5013049;28;20034;-73
2021/03/14 00:49:32;;;;;;;168.65;86.32;;;7.80;89.70;;;;;;5015562;28;20536;-69
2021/03/14 00:51:58;;;;;;;179.00;89.80;;;7.80;89.70;;;;;;5016787;28;20022;-67
2021/03/14 00:54:23;;;;;;;183.63;92.30;;;7.70;89.20;;;;;;5016389;28;20026;-71
2021/03/14 00:56:49;;;;;;;177.07;89.65;;;7.70;89.20;;;;;;5016604;28;20030;-67
2021/03/14 00:59:15;;;;;;;169.73;85.47;;;7.70;89.80;;;;;;5015292;28;20104;-72
2021/03/14 01:01:41;;;;;;;200.45;101.93;;;7.80;90.00;;;;;;5016294;28;20462;-71
2021/03/14 01:04:07;;;;;;;223.10;107.25;;;7.80;90.10;;;;;;5016758;28;20102;-67
2021/03/14 01:06:33;;;;;;;223.02;107.50;;;7.80;90.10;;;;;;5016512;28;20040;-70
2021/03/14 01:08:59;;;;;;;260.02;119.38;;;7.80;89.70;;;;;;5015096;28;20034;-70
2021/03/14 01:11:25;;;;;;;222.15;102.38;;;7.90;89.40;;;;;;5016438;28;20054;-69
2021/03/14 01:13:51;;;;;;;200.95;95.93;;;7.90;88.80;;;;;;5016102;28;20065;-66
2021/03/14 01:16:17;;;;;;;187.35;92.30;;;7.90;88.20;;;;;;5015942;28;20083;-66
2021/03/14 01:18:43;;;;;;;161.65;77.13;;;7.90;87.60;;;;;;5015976;28;20022;-67
2021/03/14 01:21:12;;;;;;;165.00;85.32;;;7.90;87.20;;;;;;5014932;28;20776;-70
2021/03/14 01:23:37;;;;;;;162.70;79.43;;;7.90;86.90;;;;;;5016207;28;20030;-70
2021/03/14 01:26:03;;;;;;;154.63;75.10;;;7.90;86.80;;;;;;5016091;28;20117;-69
2021/03/14 01:28:29;;;;;;;128.88;59.78;;;7.90;86.80;;;;;;5015812;28;20553;-73
2021/03/14 01:30:55;;;;;;;126.15;56.20;;;7.90;85.90;;;;;;5013581;28;20511;-68
2021/03/14 01:33:21;;;;;;;103.85;48.22;;;8.00;86.10;;;;;;5014666;28;20022;-68
2021/03/14 01:35:47;;;;;;;91.30;43.13;;;7.90;85.90;;;;;;5015858;28;20120;-70
2021/03/14 01:38:12;;;;;;;37.85;18.58;;;7.90;85.50;;;;;;5016180;28;20375;-70
2021/03/14 01:40:38;;;;;;;33.83;16.80;;;7.90;84.10;;;;;;5015849;28;20042;-72
2021/03/14 01:43:05;;;;;;;39.67;18.98;;;8.00;83.50;;;;;;5014514;28;20030;-71
2021/03/14 01:45:31;;;;;;;39.92;20.15;;;8.00;83.20;;;;;;5016080;28;20091;-66
2021/03/14 01:48:00;;;;;;;32.08;14.75;;;8.00;83.00;;;;;;5030913;28;20057;-68
2021/03/14 01:50:27;;;;;;;35.30;16.10;;;8.00;82.90;;;;;;5015755;28;20775;-72
2021/03/14 01:52:55;;;;;;;36.97;17.85;;;8.00;82.80;;;;;;5015644;28;20109;-71
2021/03/14 01:55:23;;;;;;;20.00;10.68;;;8.00;83.10;;;;;;5015607;28;20133;-70
2021/03/14 01:57:49;;;;;;;25.08;11.45;;;8.00;82.80;;;;;;5014205;28;20100;-69
2021/03/14 02:00:18;;;;;;;25.02;13.07;;;8.00;82.80;;;;;;5015164;28;20486;-69
2021/03/14 02:02:45;;;;;;;25.38;10.30;;;8.00;83.00;;;;;;5014110;28;20447;-68
2021/03/14 02:05:14;;;;;;;17.70;8.32;;;8.00;83.20;;;;;;5015396;28;20105;-69
2021/03/14 02:07:42;;;;;;;19.00;9.13;;;8.00;83.10;;;;;;5015025;28;20441;-68
2021/03/14 02:10:09;;;;;;;25.08;11.20;;;8.00;82.80;;;;;;5030531;28;20045;-69
2021/03/14 02:12:52;;;;;;;31.08;11.20;;;8.00;83.10;;;;;;5015239;28;20030;-71
2021/03/14 02:15:18;;;;;;;27.48;11.55;;;8.10;82.20;;;;;;5015356;28;20057;-72
2021/03/14 02:17:47;;;;;;;28.20;10.80;;;8.10;82.40;;;;;;5015111;28;20088;-68
2021/03/14 02:20:17;;;;;;;30.85;12.40;;;8.00;82.70;;;;;;5015075;28;20026;-70
2021/03/14 02:22:45;;;;;;;24.65;10.70;;;8.00;81.90;;;;;;5013752;28;20026;-69
2021/03/14 02:25:16;;;;;;;26.08;11.52;;;8.00;82.30;;;;;;5015058;28;20029;-68
2021/03/14 02:27:43;;;;;;;28.50;11.73;;;8.00;82.90;;;;;;5015351;28;20064;-71
2021/03/14 02:30:11;;;;;;;22.75;10.30;;;8.00;83.10;;;;;;5013295;28;20132;-68
2021/03/14 02:32:38;;;;;;;22.63;11.57;;;8.00;82.90;;;;;;5015129;28;20030;-71
2021/03/14 02:35:05;;;;;;;25.30;11.45;;;8.00;82.70;;;;;;5014895;28;20022;-71
2021/03/14 02:37:32;;;;;;;21.83;10.05;;;8.00;82.60;;;;;;5014720;28;20034;-72
2021/03/14 02:40:00;;;;;;;25.15;10.77;;;8.00;82.90;;;;;;5014777;28;20022;-73
2021/03/14 02:42:27;;;;;;;25.65;11.05;;;8.00;81.90;;;;;;5029934;28;20034;-70
2021/03/14 02:44:54;;;;;;;20.08;8.50;;;8.10;81.60;;;;;;5014372;28;20030;-71
2021/03/14 02:47:22;;;;;;;21.95;8.35;;;8.10;82.00;;;;;;5014557;28;20116;-72
2021/03/14 02:49:53;;;;;;;19.88;8.10;;;8.10;81.00;;;;;;5030061;28;20414;-72
2021/03/14 02:52:23;;;;;;;16.17;8.57;;;8.10;80.70;;;;;;5013301;28;20098;-71
2021/03/14 02:54:50;;;;;;;16.33;6.60;;;8.10;81.40;;;;;;5013276;28;20041;-70
2021/03/14 02:57:21;;;;;;;16.27;8.05;;;8.20;81.10;;;;;;5014395;28;20036;-71
2021/03/14 02:59:54;;;;;;;11.48;5.45;;;8.10;81.10;;;;;;5014446;28;20030;-72
2021/03/14 03:02:20;;;;;;;11.18;5.75;;;8.20;80.40;;;;;;5014367;28;20112;-70
2021/03/14 03:04:48;;;;;;;11.48;5.57;;;8.30;80.50;;;;;;5014013;28;20471;-70
2021/03/14 03:07:18;;;;;;;10.52;5.40;;;8.20;80.40;;;;;;5014299;28;20037;-70
2021/03/14 03:09:47;;;;;;;11.70;5.10;;;8.30;80.90;;;;;;5014719;28;20025;-70
2021/03/14 03:12:15;;;;;;;14.55;6.07;;;8.30;80.80;;;;;;5012285;28;20065;-72
2021/03/14 03:14:43;;;;;;;14.77;5.72;;;8.40;80.60;;;;;;5014125;28;20064;-72
2021/03/14 03:17:09;;;;;;;14.00;6.18;;;8.40;80.40;;;;;;5029158;28;20034;-69
2021/03/14 03:19:36;;;;;;;15.50;6.35;;;8.40;81.90;;;;;;5014045;28;20069;-69
2021/03/14 03:22:02;;;;;;;16.60;7.43;;;8.40;80.20;;;;;;5029191;28;20033;-69
2021/03/14 03:24:28;;;;;;;19.05;7.30;;;8.50;79.40;;;;;;5012695;28;20433;-68
2021/03/14 03:26:54;;;;;;;17.42;7.63;;;8.50;80.00;;;;;;5013924;28;20030;-67
2021/03/14 03:29:20;;;;;;;18.13;7.85;;;8.50;80.80;;;;;;5013858;28;20029;-70
2021/03/14 03:31:47;;;;;;;20.77;7.80;;;8.50;79.20;;;;;;5013539;28;20054;-70
2021/03/14 03:34:13;;;;;;;15.63;7.78;;;8.60;79.30;;;;;;5012562;28;20422;-70
2021/03/14 03:36:41;;;;;;;16.23;7.10;;;8.60;80.80;;;;;;5012373;28;20038;-69
2021/03/14 03:39:10;;;;;;;16.25;8.20;;;8.60;81.60;;;;;;5012462;28;20026;-69
2021/03/14 03:41:59;;;;;;;17.70;8.27;;;8.60;79.90;;;;;;5013739;28;20021;-69
2021/03/14 03:44:26;;;;;;;16.30;8.32;;;8.70;79.30;;;;;;5011534;28;20038;-73
2021/03/14 03:46:57;;;;;;;19.67;8.55;;;8.60;80.80;;;;;;5013587;28;20034;-73
2021/03/14 03:49:28;;;;;;;14.55;7.47;;;8.70;78.60;;;;;;5013950;28;20371;-71
2021/03/14 03:51:55;;;;;;;14.50;6.53;;;8.70;78.90;;;;;;5013578;28;20022;-70
2021/03/14 03:54:22;;;;;;;12.23;6.10;;;8.70;79.40;;;;;;5013546;28;20041;-71
2021/03/14 03:56:53;;;;;;;13.35;7.10;;;8.80;78.60;;;;;;5013444;28;20030;-71
2021/03/14 03:59:21;;;;;;;16.15;7.32;;;8.80;78.30;;;;;;5012245;28;20417;-70
2021/03/14 04:01:48;;;;;;;13.45;7.10;;;8.80;78.00;;;;;;5013469;28;20466;-69
2021/03/14 04:04:15;;;;;;;15.38;6.90;;;8.90;77.30;;;;;;5013136;28;20374;-72
2021/03/14 04:06:42;;;;;;;15.75;7.25;;;8.90;76.70;;;;;;5013374;28;20072;-71
2021/03/14 04:09:09;;;;;;;15.73;7.28;;;9.00;79.00;;;;;;5013337;28;20060;-70
2021/03/14 04:11:39;;;;;;;20.20;10.45;;;9.00;78.50;;;;;;5012103;28;20455;-70
2021/03/14 04:14:09;;;;;;;23.25;10.90;;;9.00;77.90;;;;;;5012028;28;20033;-70
2021/03/14 04:16:37;;;;;;;27.73;12.55;;;9.00;77.40;;;;;;5013388;28;20026;-69
2021/03/14 04:19:05;;;;;;;24.45;12.68;;;9.00;77.40;;;;;;5011951;28;20040;-69
2021/03/14 04:21:32;;;;;;;25.70;11.38;;;8.90;78.70;;;;;;5011964;28;20048;-72
2021/03/14 04:24:00;;;;;;;24.63;11.40;;;8.90;78.80;;;;;;5017109;28;20057;-70
2021/03/14 04:26:27;;;;;;;22.52;11.15;;;8.90;79.10;;;;;;5017030;28;20032;-68
2021/03/14 04:28:55;;;;;;;21.63;10.88;;;8.80;80.20;;;;;;5015949;28;20057;-72
2021/03/14 04:31:21;;;;;;;19.45;8.50;;;8.70;80.50;;;;;;5016646;28;20053;-70
2021/03/14 04:33:50;;;;;;;18.65;8.57;;;8.70;78.30;;;;;;5032298;28;20026;-68
2021/03/14 04:36:16;;;;;;;19.85;8.40;;;8.60;79.10;;;;;;5017087;28;20029;-67
2021/03/14 04:38:43;;;;;;;17.83;7.97;;;8.60;80.90;;;;;;5032179;28;20038;-68
2021/03/14 04:41:11;;;;;;;19.20;8.02;;;8.60;80.90;;;;;;5016990;28;20113;-68
2021/03/14 04:43:38;;;;;;;15.02;7.15;;;8.60;80.30;;;;;;5017066;28;20033;-68
2021/03/14 04:46:04;;;;;;;14.15;6.25;;;8.60;80.10;;;;;;5032094;28;20394;-69
2021/03/14 04:48:30;;;;;;;15.65;6.40;;;8.60;80.30;;;;;;5016877;28;20037;-67
2021/03/14 04:50:56;;;;;;;10.15;6.43;;;8.70;79.50;;;;;;5016783;28;20029;-70
2021/03/14 04:53:27;;;;;;;12.23;6.35;;;8.70;80.20;;;;;;5017080;28;20030;-70
2021/03/14 04:55:54;;;;;;;15.40;6.30;;;8.70;80.00;;;;;;5016674;28;20486;-68
2021/03/14 04:58:22;;;;;;;11.25;6.38;;;8.70;79.70;;;;;;5031809;28;20065;-67
2021/03/14 05:00:49;;;;;;;18.00;7.88;;;8.70;80.00;;;;;;5016645;28;20034;-67
2021/03/14 05:03:21;;;;;;;16.80;7.43;;;8.70;80.20;;;;;;5015323;28;20022;-67
2021/03/14 05:05:49;;;;;;;13.02;6.20;;;8.60;81.30;;;;;;5031726;28;20033;-68
2021/03/14 05:08:21;;;;;;;17.98;6.78;;;8.50;81.20;;;;;;5016504;28;20080;-69
2021/03/14 05:10:52;;;;;;;12.23;6.18;;;8.50;81.70;;;;;;5016511;28;20109;-69
2021/03/14 05:13:18;;;;;;;13.93;6.30;;;8.50;82.00;;;;;;5016182;28;20053;-68
2021/03/14 05:15:52;;;;;;;19.42;6.47;;;8.40;82.10;;;;;;5016288;28;20375;-67
2021/03/14 05:18:18;;;;;;;14.32;6.55;;;8.40;83.10;;;;;;5016390;28;20394;-66
2021/03/14 05:20:45;;;;;;;18.27;6.93;;;8.40;82.30;;;;;;5014969;28;20037;-67
2021/03/14 05:23:12;;;;;;;11.85;6.68;;;8.40;83.10;;;;;;5016216;28;20104;-66
2021/03/14 05:25:41;;;;;;;11.63;6.80;;;8.40;83.00;;;;;;5016200;28;20109;-69
2021/03/14 05:28:07;;;;;;;15.40;7.00;;;8.30;83.10;;;;;;5031284;28;20474;-68
2021/03/14 05:30:35;;;;;;;13.38;6.55;;;8.30;83.80;;;;;;5015973;28;20046;-68
2021/03/14 05:33:02;;;;;;;17.83;7.38;;;8.30;83.60;;;;;;5014699;28;20088;-67
2021/03/14 05:35:29;;;;;;;10.45;6.45;;;8.40;84.30;;;;;;5015310;28;20029;-67
2021/03/14 05:37:56;;;;;;;17.88;7.00;;;8.40;83.70;;;;;;5015882;28;20049;-69
2021/03/14 05:40:24;;;;;;;14.48;6.72;;;8.40;83.00;;;;;;5015869;28;20029;-70
2021/03/14 05:42:50;;;;;;;23.75;8.93;;;8.50;83.50;;;;;;5017254;28;20033;-68
2021/03/14 05:45:18;;;;;;;13.23;7.65;;;8.50;83.20;;;;;;5025340;28;20018;-65
2021/03/14 05:47:44;;;;;;;17.98;9.07;;;8.60;82.80;;;;;;5016060;28;20120;-69
2021/03/14 05:50:17;;;;;;;18.23;9.27;;;8.60;83.00;;;;;;5015696;28;20030;-66
2021/03/14 05:52:43;;;;;;;22.38;10.20;;;8.70;83.30;;;;;;5015423;28;20026;-68
2021/03/14 05:55:35;;;;;;;24.17;11.65;;;8.80;83.00;;;;;;5015777;28;20029;-68
2021/03/14 05:58:01;;;;;;;25.88;12.20;;;8.90;81.90;;;;;;5015776;28;20045;-69
2021/03/14 06:00:28;;;;;;;25.63;12.30;;;8.90;82.30;;;;;;5015560;28;20026;-67
2021/03/14 06:02:59;;;;;;;26.92;12.30;;;8.90;82.60;;;;;;5015534;28;20099;-68
2021/03/14 06:05:29;;;;;;;27.90;15.65;;;9.10;82.70;;;;;;5015364;28;20030;-68
2021/03/14 06:07:56;;;;;;;29.40;13.60;;;9.10;82.10;;;;;;5014116;28;20061;-68
2021/03/14 06:10:23;;;;;;;26.48;14.18;;;9.20;83.50;;;;;;5015268;28;20036;-67
2021/03/14 06:12:50;;;;;;;21.10;13.18;;;9.30;82.50;;;;;;5015365;28;20069;-69
2021/03/14 06:15:16;;;;;;;26.35;13.52;;;9.40;83.10;;;;;;5015004;28;20096;-69
2021/03/14 06:17:43;;;;;;;27.98;13.50;;;9.40;82.20;;;;;;5014976;28;20363;-68
2021/03/14 06:20:30;;;;;;;26.35;14.85;;;9.50;81.70;;;;;;5015163;28;20508;-68
2021/03/14 06:23:28;;;;;;;37.65;21.05;;;9.70;82.20;;;;;;5014887;28;20041;-69
2021/03/14 06:25:56;;;;;;;34.88;19.75;;;9.80;81.10;;;;;;4938185;29;20043;-70
2021/03/14 06:28:36;;;;;;;45.13;24.75;;;9.90;82.60;;;;;;4954194;29;20507;-70
2021/03/14 06:31:21;;;;;;;53.97;26.90;;;10.10;80.50;;;;;;4953946;29;20569;-69
2021/03/14 06:33:48;;;;;;;43.78;24.20;;;10.20;81.30;;;;;;4938125;29;20031;-70
2021/03/14 06:36:21;;;;;;;50.03;27.95;;;10.20;80.30;;;;;;4954046;29;20510;-68
2021/03/14 06:38:49;;;;;;;55.00;30.55;;;10.30;80.70;;;;;;4954162;29;20039;-73
2021/03/14 06:41:19;;;;;;;51.08;28.90;;;10.40;80.90;;;;;;4953853;29;20117;-72
2021/03/14 06:43:55;;;;;;;49.85;30.38;;;10.40;80.00;;;;;;4954062;29;20030;-70
2021/03/14 06:46:26;;;;;;;51.05;31.25;;;10.50;79.40;;;;;;4936882;29;20507;-69
2021/03/14 06:49:15;;;;;;;53.78;30.80;;;10.50;79.30;;;;;;4953879;29;20078;-69
2021/03/14 06:51:46;;;;;;;61.85;33.50;;;10.60;78.40;;;;;;4953876;29;20035;-69
2021/03/14 06:54:19;;;;;;;64.10;35.23;;;10.60;78.10;;;;;;4954068;29;20039;-71
2021/03/14 06:57:01;;;;;;;55.80;31.27;;;10.60;78.90;;;;;;4953125;29;20293;-70
2021/03/14 06:59:28;;;;;;;57.15;31.77;;;10.60;77.80;;;;;;4937560;29;20031;-70
2021/03/14 07:01:58;;;;;;;60.28;32.78;;;10.70;79.60;;;;;;4987039;28;20033;-73
2021/03/14 07:04:39;;;;;;;55.97;32.28;;;10.70;79.80;;;;;;5013406;28;20406;-71
2021/03/14 07:07:06;;;;;;;60.20;31.77;;;10.80;78.90;;;;;;5024025;28;20394;-69
2021/03/14 07:09:33;;;;;;;51.50;30.67;;;10.80;79.10;;;;;;4996166;28;20475;-73
2021/03/14 07:11:59;;;;;;;55.08;30.55;;;10.90;78.60;;;;;;5009685;28;20053;-70
2021/03/14 07:14:28;;;;;;;53.08;31.60;;;10.90;79.10;;;;;;5012884;28;20065;-70
2021/03/14 07:16:58;;;;;;;52.72;30.15;;;11.00;78.60;;;;;;4994560;28;20104;-70
2021/03/14 07:34:13;;;;;;;53.83;33.00;;;11.80;78.00;;;;;;5110483;27;20310;-71
2021/03/14 07:36:39;;;;;;;44.25;24.02;;;13.20;74.40;;;;;;5111034;28;20039;-71
2021/03/14 07:39:05;;;;;;;37.28;21.63;;;13.30;73.40;;;;;;5110568;28;20417;-72
2021/03/14 07:41:31;;;;;;;30.83;20.10;;;13.40;71.60;;;;;;5109304;28;20034;-71
2021/03/14 07:44:00;;;;;;;36.00;20.70;;;13.50;73.60;;;;;;5109258;28;20115;-71
2021/03/14 07:46:26;;;;;;;42.67;26.27;;;13.70;70.70;;;;;;5107669;28;20381;-72
2021/03/14 07:48:53;;;;;;;45.42;27.77;;;14.00;71.50;;;;;;5104266;28;20032;-72
2021/03/14 07:51:23;;;;;;;49.72;30.25;;;14.10;71.70;;;;;;5091690;28;20029;-72
2021/03/14 07:53:52;;;;;;;46.25;28.75;;;14.30;70.80;;;;;;5088595;28;20031;-72
2021/03/14 07:56:18;;;;;;;37.78;23.20;;;14.40;70.90;;;;;;5088698;28;20020;-73
2021/03/14 07:58:44;;;;;;;29.38;16.70;;;14.60;69.20;;;;;;5089946;28;20050;-72
2021/03/14 08:01:27;;;;;;;24.63;14.85;;;14.70;69.20;;;;;;5088468;28;20464;-72
2021/03/14 08:03:53;;;;;;;18.40;11.85;;;14.90;68.60;;;;;;5088594;28;20036;-71
2021/03/14 08:06:41;;;;;;;22.23;13.32;;;15.00;67.90;;;;;;5089574;28;20039;-71
2021/03/14 08:09:07;;;;;;;21.77;13.68;;;15.00;67.30;;;;;;5108807;28;20031;-72
2021/03/14 08:11:32;;;;;;;15.30;9.35;;;15.00;67.00;;;;;;5109986;28;20095;-72
2021/03/14 08:13:58;;;;;;;15.68;8.73;;;15.10;65.60;;;;;;5108712;28;20032;-71
2021/03/14 08:16:24;;;;;;;12.50;8.70;;;15.20;65.90;;;;;;5109866;28;20057;-71
2021/03/14 08:18:52;;;;;;;18.40;9.45;;;15.30;67.10;;;;;;5109829;28;20073;-71
2021/03/14 08:21:21;;;;;;;15.77;9.57;;;15.30;64.30;;;;;;5109851;28;20035;-73
2021/03/14 08:23:52;;;;;;;12.63;6.82;;;15.40;65.40;;;;;;5106878;28;20040;-72
2021/03/14 08:26:19;;;;;;;7.03;4.63;;;15.60;63.10;;;;;;5108771;28;20024;-71
2021/03/14 08:29:03;;;;;;;10.20;5.18;;;15.70;62.60;;;;;;5109743;28;20054;-72
2021/03/14 08:31:48;;;;;;;12.27;5.75;;;16.10;62.20;;;;;;5101929;28;20032;-71
2021/03/14 08:34:23;;;;;;;6.95;5.45;;;16.40;63.90;;;;;;5075891;28;20036;-71
2021/03/14 08:36:50;;;;;;;8.40;5.25;;;16.50;60.10;;;;;;5074247;28;20079;-73
2021/03/14 08:39:22;;;;;;;6.88;4.88;;;16.70;59.20;;;;;;5081583;28;20032;-73
2021/03/14 08:41:49;;;;;;;9.82;5.40;;;17.00;59.90;;;;;;5096154;28;20395;-70
2021/03/14 08:44:42;;;;;;;13.02;6.53;;;17.30;58.70;;;;;;5090561;28;20406;-70
2021/03/14 08:47:11;;;;;;;11.63;5.22;;;17.30;57.10;;;;;;5088804;28;20032;-71
2021/03/14 08:49:48;;;;;;;6.32;4.13;;;17.40;56.40;;;;;;5094413;28;20085;-73
2021/03/14 08:52:16;;;;;;;3.35;2.88;;;17.50;53.80;;;;;;5095401;28;20491;-72
2021/03/14 08:54:50;;;;;;;4.45;3.10;;;17.60;53.20;;;;;;5095203;28;20028;-71
2021/03/14 08:57:18;;;;;;;5.72;3.25;;;17.70;52.70;;;;;;5095633;28;20036;-70
2021/03/14 08:59:45;;;;;;;5.05;3.30;;;17.60;52.70;;;;;;5093196;28;20036;-72
2021/03/14 09:02:18;;;;;;;5.60;3.65;;;17.70;52.00;;;;;;5093943;28;20784;-72
2021/03/14 09:04:44;;;;;;;9.15;3.47;;;17.70;55.50;;;;;;5093772;28;20466;-71
2021/03/14 09:07:12;;;;;;;6.07;4.40;;;17.90;55.30;;;;;;5094717;28;20031;-73
2021/03/14 09:09:39;;;;;;;5.80;3.50;;;18.20;54.10;;;;;;5077071;28;20032;-70
2021/03/14 09:12:17;;;;;;;6.18;3.13;;;18.30;56.30;;;;;;5073455;28;20116;-71
2021/03/14 09:14:45;;;;;;;6.25;3.42;;;18.30;52.30;;;;;;5083973;28;20111;-71
2021/03/14 09:17:15;;;;;;;6.95;3.58;;;18.20;51.10;;;;;;5081609;28;20028;-71
2021/03/14 09:19:48;;;;;;;6.85;3.10;;;18.20;51.60;;;;;;5074871;28;20089;-71
2021/03/14 09:22:17;;;;;;;7.25;4.53;;;18.10;51.80;;;;;;5073689;28;20024;-71
2021/03/14 09:24:47;;;;;;;6.28;3.72;;;18.10;56.30;;;;;;5074717;28;20056;-72
2021/03/14 09:27:16;;;;;;;5.68;3.20;;;18.00;55.40;;;;;;5092274;28;20055;-72
2021/03/14 09:29:51;;;;;;;4.40;3.35;;;18.10;53.00;;;;;;5094742;28;20028;-72
2021/03/14 09:32:37;;;;;;;12.07;5.97;;;18.10;53.10;;;;;;5094359;28;20408;-69
2021/03/14 09:35:32;;;;;;;8.25;4.15;;;18.00;51.10;;;;;;5094048;28;20023;-71
2021/03/14 09:38:08;;;;;;;9.25;6.15;;;17.80;51.60;;;;;;5094159;28;20055;-71
2021/03/14 09:40:38;;;;;;;14.80;8.63;;;17.80;57.40;;;;;;5094750;28;20056;-73
2021/03/14 09:43:28;;;;;;;26.23;18.42;;;17.60;61.30;;;;;;5093754;28;20032;-72
2021/03/14 09:45:58;;;;;;;22.38;14.85;;;17.10;65.40;;;;;;5093446;28;20054;-70
2021/03/14 09:48:26;;;;;;;18.88;11.10;;;17.10;66.40;;;;;;5071788;28;20052;-71
2021/03/14 09:50:56;;;;;;;16.33;12.43;;;17.00;66.60;;;;;;5072850;28;20479;-72
2021/03/14 09:53:30;;;;;;;18.92;13.00;;;16.80;66.30;;;;;;5074356;28;20107;-74
2021/03/14 09:56:04;;;;;;;21.17;13.82;;;16.80;65.90;;;;;;5073313;28;20527;-72
2021/03/14 09:58:30;;;;;;;32.80;17.40;;;16.80;67.90;;;;;;5094452;28;20028;-70
2021/03/14 10:00:58;;;;;;;36.47;18.85;;;16.90;67.20;;;;;;5091061;28;20382;-71
2021/03/14 10:03:32;;;;;;;42.65;19.15;;;16.90;67.30;;;;;;5074172;28;20518;-72
2021/03/14 10:05:58;;;;;;;22.63;12.07;;;16.90;66.80;;;;;;5077244;28;20028;-70
2021/03/14 10:08:36;;;;;;;15.80;10.55;;;16.90;64.50;;;;;;5092965;28;20077;-71
2021/03/14 10:11:04;;;;;;;16.73;10.60;;;16.90;64.10;;;;;;5092933;28;20028;-72
2021/03/14 10:13:32;;;;;;;18.83;11.70;;;16.90;64.90;;;;;;5094005;28;20031;-71
2021/03/14 10:15:59;;;;;;;18.48;11.07;;;17.00;63.90;;;;;;5093929;28;20024;-72
2021/03/14 10:18:27;;;;;;;16.13;10.52;;;17.00;65.30;;;;;;5093674;28;20034;-73
2021/03/14 10:21:26;;;;;;;18.70;10.63;;;17.20;64.80;;;;;;5093963;28;20032;-70
2021/03/14 10:24:22;;;;;;;16.83;10.50;;;17.50;62.60;;;;;;5093734;28;20024;-72
2021/03/14 10:26:55;;;;;;;19.80;8.50;;;17.70;60.90;;;;;;5083785;28;20036;-73
2021/03/14 10:29:27;;;;;;;14.35;8.38;;;17.90;60.90;;;;;;5092570;28;20131;-72
2021/03/14 10:31:53;;;;;;;;;;;17.80;60.20;;;;;;5093939;28;20024;-73
2021/03/14 10:34:20;;;;;;;12.73;8.73;;;17.80;60.10;;;;;;5073892;28;20430;-71
2021/03/14 10:36:46;;;;;;;11.52;8.57;;;17.90;61.10;;;;;;5072789;28;20068;-72
2021/03/14 10:39:12;;;;;;;13.65;8.82;;;17.90;59.80;;;;;;5088120;28;20036;-73
2021/03/14 10:41:43;;;;;;;14.48;8.70;;;17.90;60.00;;;;;;5093406;28;20032;-71
2021/03/14 10:44:10;;;;;;;17.10;8.45;;;18.10;59.70;;;;;;5093466;28;20027;-72
2021/03/14 10:46:49;;;;;;;12.18;8.55;;;18.30;59.80;;;;;;5085593;28;20032;-72
2021/03/14 10:49:29;;;;;;;14.63;8.75;;;18.60;58.60;;;;;;5077929;28;20032;-68
2021/03/14 10:51:59;;;;;;;12.73;8.13;;;18.70;58.90;;;;;;5093224;28;20047;-72
2021/03/14 10:54:51;;;;;;;12.77;8.27;;;18.70;57.70;;;;;;5091195;28;20050;-69
2021/03/14 10:57:17;;;;;;;13.50;8.05;;;18.90;57.40;;;;;;5073962;28;20420;-71
2021/03/14 10:59:43;;;;;;;11.98;7.75;;;19.10;59.00;;;;;;5071655;28;20066;-72
2021/03/14 11:02:24;;;;;;;11.18;7.80;;;19.10;55.60;;;;;;5071571;28;20025;-69
2021/03/14 11:04:58;;;;;;;11.15;7.47;;;19.30;55.40;;;;;;5081742;28;20067;-69
2021/03/14 11:07:25;;;;;;;12.57;7.57;;;19.40;54.00;;;;;;5088214;28;20037;-68
2021/03/14 11:10:03;;;;;;;10.82;7.50;;;19.70;54.30;;;;;;5081798;28;20041;-69
2021/03/14 11:12:34;;;;;;;11.95;8.18;;;19.70;53.90;;;;;;5071652;28;20025;-66
2021/03/14 11:15:00;;;;;;;12.88;8.40;;;19.60;53.70;;;;;;5072719;28;20438;-68
2021/03/14 11:17:30;;;;;;;22.05;8.45;;;20.10;53.60;;;;;;5071627;28;20033;-67
2021/03/14 11:19:56;;;;;;;11.68;8.18;;;20.20;51.70;;;;;;5072852;28;20469;-70
2021/03/14 11:22:23;;;;;;;10.60;7.43;;;20.30;52.10;;;;;;5072956;28;20031;-66
2021/03/14 11:24:50;;;;;;;11.60;8.23;;;20.80;51.00;;;;;;5071321;28;20056;-66
2021/03/14 11:27:16;;;;;;;13.68;7.88;;;21.20;50.80;;;;;;5072878;28;20029;-69
2021/03/14 11:29:43;;;;;;;11.75;7.45;;;21.20;51.20;;;;;;5072821;28;20024;-69
2021/03/14 11:32:11;;;;;;;11.45;7.22;;;21.20;48.40;;;;;;5072466;28;20021;-68
2021/03/14 11:34:41;;;;;;;11.43;7.45;;;21.30;49.10;;;;;;5071568;28;20380;-68
2021/03/14 11:37:08;;;;;;;9.10;7.18;;;22.00;48.50;;;;;;5071486;28;20472;-69
2021/03/14 11:39:34;;;;;;;10.55;7.03;;;22.00;46.20;;;;;;5072657;28;20070;-69
2021/03/14 11:42:01;;;;;;;11.50;6.80;;;21.70;47.10;;;;;;5072700;28;20024;-70
2021/03/14 11:44:27;;;;;;;9.80;6.70;;;21.50;48.80;;;;;;5072667;28;20166;-70
2021/03/14 11:46:53;;;;;;;10.20;7.43;;;20.90;49.00;;;;;;5072452;28;20036;-68
2021/03/14 11:49:19;;;;;;;9.90;7.18;;;20.60;49.30;;;;;;5072544;28;20468;-68
2021/03/14 11:51:45;;;;;;;9.65;6.82;;;20.20;50.50;;;;;;5071284;28;20028;-69
2021/03/14 11:54:12;;;;;;;13.73;6.97;;;19.90;51.50;;;;;;5072612;28;20028;-67
2021/03/14 11:56:38;;;;;;;11.00;7.20;;;19.60;51.90;;;;;;5071238;28;20032;-67
2021/03/14 11:59:04;;;;;;;15.30;7.18;;;19.30;53.60;;;;;;5070825;28;20024;-69
2021/03/14 12:01:30;;;;;;;8.52;6.40;;;19.30;53.30;;;;;;5071524;28;20210;-69
2021/03/14 12:03:56;;;;;;;11.13;7.10;;;19.10;53.80;;;;;;5083879;28;20123;-69
2021/03/14 12:06:22;;;;;;;14.55;7.57;;;18.80;53.90;;;;;;5073557;28;20074;-69
2021/03/14 12:08:48;;;;;;;11.30;7.93;;;18.60;55.40;;;;;;5076558;28;20508;-70
2021/03/14 12:11:14;;;;;;;11.07;7.07;;;18.40;55.60;;;;;;5076245;28;20094;-70
2021/03/14 12:13:40;;;;;;;12.27;7.00;;;18.20;55.40;;;;;;5075923;28;20456;-69
2021/03/14 12:16:07;;;;;;;11.27;7.07;;;18.00;55.20;;;;;;5074638;28;20036;-66
2021/03/14 12:18:34;;;;;;;14.90;7.20;;;17.80;56.40;;;;;;5076019;28;20081;-69
2021/03/14 12:20:59;;;;;;;7.53;6.45;;;17.80;58.30;;;;;;5074539;28;20039;-67
2021/03/14 12:23:26;;;;;;;17.13;8.38;;;17.80;59.00;;;;;;5076179;28;20020;-67
2021/03/14 12:25:52;;;;;;;13.77;6.28;;;17.70;56.70;;;;;;5074581;28;20044;-70
2021/03/14 12:28:19;;;;;;;18.02;9.18;;;17.60;56.70;;;;;;5075870;28;20071;-66
2021/03/14 12:30:45;;;;;;;19.15;10.88;;;17.50;57.10;;;;;;5075846;28;20469;-66
2021/03/14 12:33:11;;;;;;;20.27;10.88;;;17.30;58.00;;;;;;5074315;28;20044;-68
2021/03/14 12:35:38;;;;;;;35.38;16.80;;;17.30;58.60;;;;;;5075339;28;20021;-68
2021/03/14 12:38:04;;;;;;;30.83;13.20;;;17.30;59.90;;;;;;5075994;28;20024;-69
2021/03/14 12:40:30;;;;;;;13.82;7.40;;;17.30;57.90;;;;;;5087094;28;20047;-69
2021/03/14 12:42:55;;;;;;;8.70;5.00;;;17.20;57.60;;;;;;5074378;28;20024;-67
2021/03/14 12:45:22;;;;;;;8.73;4.03;;;17.00;57.60;;;;;;5075538;28;20024;-71
2021/03/14 12:47:49;;;;;;;13.13;5.55;;;16.90;57.90;;;;;;5075598;28;20029;-69
2021/03/14 12:50:16;;;;;;;9.50;4.93;;;16.90;58.70;;;;;;5074227;28;20056;-67
2021/03/14 12:52:42;;;;;;;9.43;5.15;;;16.70;56.40;;;;;;5075400;28;20025;-68
2021/03/14 12:55:09;;;;;;;10.38;5.85;;;16.70;56.20;;;;;;5075388;28;20032;-72
2021/03/14 12:57:35;;;;;;;9.18;4.80;;;16.50;57.10;;;;;;5085670;28;20121;-69
2021/03/14 13:00:05;;;;;;;8.48;4.97;;;16.10;59.40;;;;;;5076639;28;20028;-69
2021/03/14 13:02:31;;;;;;;6.50;2.88;;;15.70;63.80;;;;;;5075268;28;20361;-69